Terminal Aerodrome Forecast
Issued by NWS Denver/Boulder, CO

Home | Current Version | Previous Version | Text Only | Print | Product List | Glossary On
Versions: 1 2 3 4 5 6 7 8 9 10 11 12 13 14 15 16 17 18 19 20 21 22 23 24 25 26 27 28 29 30 31 32 33 34 35 36 37 38 39 40 41 42 43 44 45 46 47 48 49 50
000
FTUS45 KBOU 091443 AAA
TAFDEN
TAF AMD
KDEN 091443Z 0915/1018 24009KT P6SM FEW080 SCT110
     FM091800 03007KT P6SM FEW080 SCT120
     FM092100 06008KT P6SM VCTS SCT080CB BKN120
     FM092300 28011KT P6SM VCTS SCT080CB BKN120
     FM100200 24008KT P6SM FEW080 BKN120
     FM100500 21008KT P6SM SCT120 SCT200=

USA.gov is the U.S. government's official web portal to all federal, state and local government web resources and services.